createdAt,value
2019-02-12T00:01:34.755Z,11.20
2019-02-12T00:04:02.809Z,11.47
2019-02-12T00:06:30.964Z,11.35
2019-02-12T00:08:59.869Z,11.55
2019-02-12T00:11:28.036Z,11.90
2019-02-12T00:13:56.215Z,11.08
2019-02-12T00:16:24.399Z,10.10
2019-02-12T00:18:52.561Z,11.30
2019-02-12T00:21:20.715Z,10.98
2019-02-12T00:23:48.898Z,10.23
2019-02-12T00:26:18.136Z,8.75
2019-02-12T00:28:47.869Z,9.00
2019-02-12T00:31:16.099Z,8.70
2019-02-12T00:33:44.225Z,8.68
2019-02-12T00:36:12.199Z,8.80
2019-02-12T00:38:40.474Z,8.23
2019-02-12T00:41:08.776Z,7.50
2019-02-12T00:43:36.844Z,7.62
2019-02-12T00:46:05.137Z,7.20
2019-02-12T00:48:33.268Z,6.47
2019-02-12T00:51:01.160Z,6.05
2019-02-12T00:53:29.495Z,6.33
2019-02-12T00:55:57.790Z,5.47
2019-02-12T00:58:25.929Z,5.92
2019-02-12T01:00:54.156Z,5.65
2019-02-12T01:03:22.436Z,5.72
2019-02-12T01:05:51.057Z,4.75
2019-02-12T01:08:20.420Z,5.92
2019-02-12T01:10:49.557Z,5.27
2019-02-12T01:13:19.755Z,6.47
2019-02-12T01:15:48.008Z,5.20
2019-02-12T01:18:16.308Z,6.00
2019-02-12T01:20:44.479Z,5.47
2019-02-12T01:23:12.527Z,5.53
2019-02-12T01:25:40.729Z,4.72
2019-02-12T01:28:08.881Z,4.83
2019-02-12T01:30:38.684Z,5.60
2019-02-12T01:33:06.837Z,5.55
2019-02-12T01:35:35.156Z,5.53
2019-02-12T01:38:03.191Z,5.75
2019-02-12T01:40:31.402Z,5.47
2019-02-12T01:42:59.572Z,5.95
2019-02-12T01:45:27.624Z,5.85
2019-02-12T01:47:55.923Z,5.80
2019-02-12T01:50:24.156Z,6.57
2019-02-12T01:52:52.455Z,5.87
2019-02-12T01:55:20.506Z,6.10
2019-02-12T01:57:48.772Z,7.00
2019-02-12T02:00:17.042Z,6.15
2019-02-12T02:02:46.141Z,6.95
2019-02-12T02:05:14.483Z,5.35
2019-02-12T02:07:42.591Z,6.00
2019-02-12T02:10:15.918Z,6.17
2019-02-12T02:12:44.184Z,6.60
2019-02-12T02:15:13.997Z,6.08
2019-02-12T02:17:42.260Z,6.42
2019-02-12T02:20:10.788Z,6.83
2019-02-12T02:22:39.008Z,6.60
2019-02-12T02:25:08.265Z,7.45
2019-02-12T02:27:36.484Z,8.15
2019-02-12T02:30:05.313Z,8.10
2019-02-12T02:32:33.601Z,9.10
2019-02-12T02:35:01.852Z,8.50
2019-02-12T02:37:30.159Z,8.88
2019-02-12T02:39:59.648Z,9.30
2019-02-12T02:42:27.934Z,9.25
2019-02-12T02:44:56.150Z,9.90
2019-02-12T02:47:24.256Z,9.40
2019-02-12T02:49:52.308Z,9.90
2019-02-12T02:52:20.413Z,9.65
2019-02-12T02:54:48.667Z,9.95
2019-02-12T02:57:16.944Z,10.68
2019-02-12T02:59:45.137Z,10.82
2019-02-12T03:02:13.374Z,10.38
2019-02-12T03:04:41.589Z,10.80
2019-02-12T03:07:10.951Z,10.60
2019-02-12T03:09:39.157Z,10.20
2019-02-12T03:12:08.308Z,10.60
2019-02-12T03:14:36.377Z,10.90
2019-02-12T03:17:04.604Z,10.60
2019-02-12T03:19:32.843Z,12.00
2019-02-12T03:22:03.741Z,11.17
2019-02-12T03:24:30.929Z,11.40
2019-02-12T03:26:59.027Z,11.05
2019-02-12T03:29:27.198Z,10.75
2019-02-12T03:31:55.506Z,11.30
2019-02-12T03:34:23.881Z,11.25
2019-02-12T03:36:51.998Z,10.63
2019-02-12T03:39:20.204Z,11.20
2019-02-12T03:41:48.344Z,10.90
2019-02-12T03:44:18.167Z,10.93
2019-02-12T03:46:46.134Z,11.47
2019-02-12T03:49:14.232Z,11.20
2019-02-12T03:51:42.262Z,13.00
2019-02-12T03:54:10.680Z,12.95
2019-02-12T03:56:38.715Z,11.25
2019-02-12T03:59:06.820Z,12.10
2019-02-12T04:01:35.058Z,11.88
2019-02-12T04:04:03.418Z,11.57
2019-02-12T04:06:31.437Z,10.60
2019-02-12T04:09:00.805Z,12.70
2019-02-12T04:11:29.454Z,11.73
2019-02-12T04:13:58.212Z,11.60
2019-02-12T04:16:26.952Z,11.33
2019-02-12T04:18:55.397Z,11.75
2019-02-12T04:21:23.951Z,12.30
2019-02-12T04:23:54.133Z,11.00
2019-02-12T04:26:23.151Z,10.53
2019-02-12T04:28:51.578Z,10.35
2019-02-12T04:31:20.018Z,11.80
2019-02-12T04:33:48.437Z,11.12
2019-02-12T04:36:16.823Z,11.68
2019-02-12T04:38:45.220Z,10.30
2019-02-12T04:41:13.480Z,10.80
2019-02-12T04:43:42.068Z,11.43
2019-02-12T04:46:10.412Z,11.30
2019-02-12T04:48:39.398Z,11.12
2019-02-12T04:51:08.202Z,9.75
2019-02-12T04:53:36.492Z,7.80
2019-02-12T04:56:04.981Z,5.95
2019-02-12T04:58:33.408Z,4.70
2019-02-12T05:01:02.215Z,3.60
2019-02-12T05:03:31.049Z,3.70
2019-02-12T05:05:59.708Z,3.80
2019-02-12T05:08:50.502Z,5.17
2019-02-12T05:11:20.087Z,6.10
2019-02-12T05:13:48.621Z,6.50
2019-02-12T05:16:17.179Z,6.20
2019-02-12T05:18:45.554Z,5.10
2019-02-12T05:21:14.002Z,5.00
2019-02-12T05:23:42.297Z,4.75
2019-02-12T05:26:10.456Z,5.37
2019-02-12T05:28:38.755Z,6.83
2019-02-12T05:31:07.093Z,7.92
2019-02-12T05:33:34.996Z,8.80
2019-02-12T05:36:03.246Z,9.30
2019-02-12T05:38:32.163Z,10.30
2019-02-12T05:41:00.402Z,12.95
2019-02-12T05:43:28.712Z,13.93
2019-02-12T05:45:56.952Z,12.05
2019-02-12T05:48:26.358Z,10.40
2019-02-12T05:50:54.522Z,9.10
2019-02-12T05:53:22.659Z,7.60
2019-02-12T05:55:51.312Z,7.40
2019-02-12T05:58:19.461Z,7.33
2019-02-12T06:00:47.456Z,8.10
2019-02-12T06:03:15.743Z,9.17
2019-02-12T06:05:44.115Z,7.87
2019-02-12T06:08:12.289Z,8.20
2019-02-12T06:10:40.421Z,9.63
2019-02-12T06:13:08.645Z,8.80
2019-02-12T06:15:36.821Z,7.75
2019-02-12T06:18:05.160Z,8.50
2019-02-12T06:20:35.093Z,8.90
2019-02-12T06:23:04.260Z,9.10
2019-02-12T06:25:32.572Z,8.18
2019-02-12T06:28:00.872Z,7.55
2019-02-12T06:30:28.900Z,7.05
2019-02-12T06:32:57.060Z,6.58
2019-02-12T06:35:25.270Z,6.83
2019-02-12T06:37:53.503Z,6.40
2019-02-12T06:40:21.828Z,6.10
2019-02-12T06:42:51.233Z,6.10
2019-02-12T06:45:19.517Z,6.50
2019-02-12T06:47:47.853Z,5.40
2019-02-12T06:50:17.160Z,4.78
2019-02-12T06:52:45.440Z,5.62
2019-02-12T06:55:13.678Z,4.47
2019-02-12T06:57:42.568Z,5.05
2019-02-12T07:00:10.837Z,5.00
2019-02-12T07:03:10.156Z,3.72
2019-02-12T07:05:41.096Z,4.20
2019-02-12T07:09:09.144Z,4.60
2019-02-12T07:12:29.361Z,4.30
2019-02-12T07:15:05.334Z,4.25
2019-02-12T07:18:19.263Z,3.75
2019-02-12T07:21:31.066Z,3.80
2019-02-12T07:24:35.714Z,3.85
2019-02-12T07:28:00.605Z,4.10
2019-02-12T07:31:20.864Z,4.20
2019-02-12T07:34:46.047Z,4.67
2019-02-12T07:38:08.040Z,4.75
2019-02-12T07:40:58.616Z,4.47
2019-02-12T07:44:03.686Z,4.22
2019-02-12T07:47:03.761Z,4.10
2019-02-12T07:50:06.016Z,5.15
2019-02-12T07:53:02.527Z,4.58
2019-02-12T07:56:27.249Z,4.40
2019-02-12T07:59:36.179Z,3.95
2019-02-12T08:02:48.952Z,3.90
2019-02-12T08:05:52.004Z,4.72
2019-02-12T08:09:26.204Z,4.40
2019-02-12T08:12:33.433Z,4.90
2019-02-12T08:15:29.152Z,4.60
2019-02-12T08:18:38.911Z,4.22
2019-02-12T08:22:05.789Z,4.00
2019-02-12T08:25:03.699Z,4.30
2019-02-12T08:28:19.632Z,4.50
2019-02-12T08:31:41.581Z,4.60
2019-02-12T08:34:38.295Z,5.30
2019-02-12T08:37:32.031Z,4.42
2019-02-12T08:40:39.750Z,4.47
2019-02-12T08:44:03.316Z,4.60
2019-02-12T08:47:11.490Z,4.30
2019-02-12T08:50:11.947Z,4.72
2019-02-12T08:53:21.370Z,4.70
2019-02-12T08:56:42.167Z,4.90
2019-02-12T08:59:20.284Z,4.40
2019-02-12T09:02:25.216Z,4.60
2019-02-12T09:05:38.012Z,4.30
2019-02-12T09:08:39.508Z,3.95
2019-02-12T09:11:33.887Z,3.50
2019-02-12T09:14:15.822Z,4.40
2019-02-12T09:17:16.298Z,5.10
2019-02-12T09:20:12.947Z,4.10
2019-02-12T09:23:26.246Z,5.00
2019-02-12T09:26:28.236Z,3.97
2019-02-12T09:29:26.578Z,5.70
2019-02-12T09:32:40.732Z,4.70
2019-02-12T09:35:55.704Z,4.35
2019-02-12T09:39:05.194Z,5.07
2019-02-12T09:41:58.338Z,5.42
2019-02-12T09:45:15.942Z,5.12
2019-02-12T09:47:58.333Z,5.10
2019-02-12T09:51:09.204Z,5.28
2019-02-12T09:54:13.215Z,6.20
2019-02-12T09:57:33.377Z,5.58
2019-02-12T10:01:03.208Z,5.20
2019-02-12T10:04:14.551Z,4.83
2019-02-12T10:07:45.310Z,5.20
2019-02-12T10:11:14.203Z,5.05
2019-02-12T10:14:38.241Z,4.60
2019-02-12T10:17:49.716Z,4.75
2019-02-12T10:21:03.133Z,5.15
2019-02-12T10:24:24.428Z,4.80
2019-02-12T10:27:59.995Z,5.00
2019-02-12T10:31:09.772Z,4.20
2019-02-12T10:34:05.296Z,4.33
2019-02-12T10:36:58.748Z,4.60
2019-02-12T10:40:06.356Z,5.20
2019-02-12T10:43:04.764Z,5.40
2019-02-12T10:46:04.633Z,5.60
2019-02-12T10:49:04.462Z,4.80
2019-02-12T10:52:03.902Z,4.22
2019-02-12T10:55:11.488Z,3.87
2019-02-12T10:58:06.484Z,3.55
2019-02-12T11:01:08.808Z,2.75
2019-02-12T11:04:03.173Z,3.00
2019-02-12T11:07:02.262Z,3.10
2019-02-12T11:10:08.141Z,2.57
2019-02-12T11:13:07.861Z,3.10
2019-02-12T11:16:07.587Z,3.00
2019-02-12T11:19:03.521Z,2.98
2019-02-12T11:21:59.892Z,2.98
2019-02-12T11:24:56.511Z,2.65
2019-02-12T11:27:53.717Z,3.47
2019-02-12T11:30:54.705Z,2.62
2019-02-12T11:33:50.683Z,2.50
2019-02-12T11:36:45.551Z,2.50
2019-02-12T11:39:40.917Z,2.83
2019-02-12T11:42:36.147Z,2.65
2019-02-12T11:45:45.809Z,2.52
2019-02-12T11:48:41.662Z,2.27
2019-02-12T11:51:37.919Z,2.10
2019-02-12T11:54:33.546Z,2.00
2019-02-12T11:57:28.161Z,2.70
2019-02-12T12:00:28.710Z,2.05
2019-02-12T12:03:24.110Z,2.20
2019-02-12T12:06:24.574Z,1.90
2019-02-12T12:09:36.659Z,2.50
2019-02-12T12:12:36.652Z,2.62
2019-02-12T12:15:31.924Z,2.70
2019-02-12T12:18:31.438Z,2.20
2019-02-12T12:21:12.654Z,2.85
2019-02-12T12:23:51.389Z,2.80
2019-02-12T12:26:22.719Z,3.20
2019-02-12T12:28:51.154Z,3.27
2019-02-12T12:31:20.868Z,3.00
2019-02-12T12:33:49.120Z,2.92
2019-02-12T12:36:17.027Z,3.30
2019-02-12T12:38:45.197Z,3.47
2019-02-12T12:41:13.334Z,3.15
2019-02-12T12:43:41.665Z,3.50
2019-02-12T12:46:09.888Z,3.87
2019-02-12T12:48:39.953Z,4.10
2019-02-12T12:51:08.271Z,3.70
2019-02-12T12:53:36.294Z,3.60
2019-02-12T12:56:04.491Z,3.10
2019-02-12T12:58:32.926Z,2.72
2019-02-12T13:01:02.981Z,2.65
2019-02-12T13:03:31.203Z,3.00
2019-02-12T13:05:59.427Z,2.50
2019-02-12T13:08:27.821Z,2.70
2019-02-12T13:10:56.329Z,2.70
2019-02-12T13:13:24.396Z,2.52
2019-02-12T13:15:53.016Z,2.50
2019-02-12T13:18:21.135Z,2.90
2019-02-12T13:20:49.492Z,2.90
2019-02-12T13:23:17.534Z,2.30
2019-02-12T13:25:45.912Z,2.40
2019-02-12T13:28:14.067Z,2.98
2019-02-12T13:30:42.142Z,2.90
2019-02-12T13:33:10.380Z,3.10
2019-02-12T13:35:38.833Z,2.85
2019-02-12T13:38:06.978Z,2.75
2019-02-12T13:40:35.251Z,3.65
2019-02-12T13:43:03.487Z,2.40
2019-02-12T13:45:31.873Z,4.00
2019-02-12T13:47:59.937Z,3.00
2019-02-12T13:50:28.217Z,2.05
2019-02-12T13:52:56.211Z,2.72
2019-02-12T13:55:24.787Z,3.50
2019-02-12T13:57:53.297Z,3.00
2019-02-12T14:00:23.033Z,3.25
2019-02-12T14:02:52.173Z,3.20
2019-02-12T14:05:21.910Z,2.77
2019-02-12T14:07:52.199Z,2.87
2019-02-12T14:10:23.099Z,2.98
2019-02-12T14:12:53.652Z,3.40
2019-02-12T14:15:24.092Z,3.10
2019-02-12T14:17:52.804Z,3.33
2019-02-12T14:20:21.310Z,3.00
2019-02-12T14:22:49.867Z,2.80
2019-02-12T14:25:25.189Z,3.52
2019-02-12T14:27:49.294Z,3.33
2019-02-12T14:30:18.006Z,3.40
2019-02-12T14:32:46.601Z,4.08
2019-02-12T14:35:14.835Z,3.77
2019-02-12T14:37:44.238Z,4.00
2019-02-12T14:40:12.929Z,3.58
2019-02-12T14:42:41.518Z,3.80
2019-02-12T14:45:11.344Z,3.85
2019-02-12T14:47:40.112Z,3.85
2019-02-12T14:50:09.727Z,3.67
2019-02-12T14:52:39.431Z,4.30
2019-02-12T14:55:08.072Z,4.05
2019-02-12T14:57:37.665Z,3.72
2019-02-12T15:00:07.578Z,4.80
2019-02-12T15:02:36.120Z,3.92
2019-02-12T15:05:05.127Z,4.80
2019-02-12T15:07:33.505Z,4.58
2019-02-12T15:10:01.884Z,4.20
2019-02-12T15:12:30.444Z,4.35
2019-02-12T15:14:58.656Z,4.50
2019-02-12T15:17:27.417Z,4.50
2019-02-12T15:19:56.152Z,4.30
2019-02-12T15:22:24.572Z,4.37
2019-02-12T15:24:53.028Z,3.80
2019-02-12T15:27:22.308Z,4.65
2019-02-12T15:29:50.897Z,4.50
2019-02-12T15:32:19.005Z,4.25
2019-02-12T15:34:47.148Z,4.35
2019-02-12T15:37:15.462Z,4.12
2019-02-12T15:39:43.679Z,4.20
2019-02-12T15:42:12.034Z,3.70
2019-02-12T15:44:40.238Z,3.67
2019-02-12T15:47:08.436Z,3.50
2019-02-12T15:49:36.861Z,3.57
2019-02-12T15:52:05.293Z,3.17
2019-02-12T15:54:33.587Z,3.77
2019-02-12T15:57:01.719Z,3.70
2019-02-12T15:59:31.559Z,3.50
2019-02-12T16:02:00.266Z,2.87
2019-02-12T16:04:28.291Z,3.40
2019-02-12T16:06:57.876Z,3.60
2019-02-12T16:09:26.496Z,3.80
2019-02-12T16:11:54.840Z,3.58
2019-02-12T16:14:23.053Z,4.20
2019-02-12T16:16:52.499Z,3.90
2019-02-12T16:19:21.519Z,3.60
2019-02-12T16:21:49.687Z,3.20
2019-02-12T16:24:18.016Z,3.50
2019-02-12T16:26:46.149Z,4.40
2019-02-12T16:29:14.348Z,4.10
2019-02-12T16:31:42.434Z,3.12
2019-02-12T16:34:10.598Z,4.53
2019-02-12T16:36:38.733Z,4.12
2019-02-12T16:39:06.896Z,3.50
2019-02-12T16:41:35.040Z,4.10
2019-02-12T16:44:03.177Z,4.10
2019-02-12T16:46:31.378Z,4.40
2019-02-12T16:48:59.384Z,4.58
2019-02-12T16:51:29.605Z,4.03
2019-02-12T16:53:57.680Z,4.00
2019-02-12T16:56:25.574Z,4.28
2019-02-12T16:58:53.643Z,4.20
2019-02-12T17:01:21.931Z,4.65
2019-02-12T17:03:49.964Z,4.58
2019-02-12T17:06:18.266Z,4.60
2019-02-12T17:08:46.424Z,4.15
2019-02-12T17:11:14.455Z,4.20
2019-02-12T17:13:42.673Z,3.90
2019-02-12T17:16:10.757Z,3.47
2019-02-12T17:18:39.146Z,4.45
2019-02-12T17:21:07.284Z,4.60
2019-02-12T17:23:35.501Z,4.60
2019-02-12T17:26:03.667Z,4.75
2019-02-12T17:28:31.940Z,5.00
2019-02-12T17:31:00.188Z,5.35
2019-02-12T17:33:28.379Z,5.40
2019-02-12T17:35:58.276Z,5.60
2019-02-12T17:38:26.380Z,4.80
2019-02-12T17:40:54.842Z,5.40
2019-02-12T17:43:23.012Z,4.30
2019-02-12T17:45:51.024Z,4.22
2019-02-12T17:48:19.176Z,4.30
2019-02-12T17:50:47.264Z,4.60
2019-02-12T17:53:15.402Z,4.75
2019-02-12T17:55:43.784Z,4.70
2019-02-12T17:58:11.944Z,4.53
2019-02-12T18:00:43.420Z,4.55
2019-02-12T18:03:11.551Z,4.10
2019-02-12T18:05:39.461Z,4.40
2019-02-12T18:08:07.596Z,4.60
2019-02-12T18:10:36.172Z,5.17
2019-02-12T18:13:04.300Z,6.70
2019-02-12T18:15:32.647Z,4.60
2019-02-12T18:18:00.733Z,4.40
2019-02-12T18:20:28.990Z,4.90
2019-02-12T18:22:57.180Z,4.90
2019-02-12T18:25:25.432Z,6.62
2019-02-12T18:27:53.497Z,13.00
2019-02-12T18:30:21.803Z,4.90
2019-02-12T18:32:49.878Z,5.07
2019-02-12T18:35:18.148Z,5.40
2019-02-12T18:37:46.302Z,5.10
2019-02-12T18:40:14.603Z,4.90
2019-02-12T18:42:42.661Z,5.30
2019-02-12T18:45:12.980Z,5.30
2019-02-12T18:47:41.148Z,4.90
2019-02-12T18:50:09.712Z,5.25
2019-02-12T18:52:37.915Z,4.97
2019-02-12T18:55:06.274Z,5.00
2019-02-12T18:57:34.491Z,5.40
2019-02-12T19:00:04.526Z,5.50
2019-02-12T19:02:34.372Z,5.40
2019-02-12T19:05:02.444Z,5.40
2019-02-12T19:07:30.777Z,5.15
2019-02-12T19:09:58.909Z,5.20
2019-02-12T19:12:27.110Z,5.03
2019-02-12T19:14:56.752Z,5.10
2019-02-12T19:17:24.991Z,5.55
2019-02-12T19:19:53.058Z,5.15
2019-02-12T19:22:21.297Z,5.12
2019-02-12T19:24:49.597Z,5.62
2019-02-12T19:27:17.848Z,4.90
2019-02-12T19:29:46.155Z,5.17
2019-02-12T19:32:14.295Z,5.05
2019-02-12T19:34:42.512Z,5.45
2019-02-12T19:37:10.680Z,5.12
2019-02-12T19:39:38.860Z,5.50
2019-02-12T19:42:07.104Z,5.33
2019-02-12T19:44:35.435Z,5.47
2019-02-12T19:47:03.545Z,5.60
2019-02-12T19:49:31.688Z,4.70
2019-02-12T19:51:59.988Z,5.47
2019-02-12T19:54:28.197Z,5.42
2019-02-12T19:56:58.403Z,5.25
2019-02-12T19:59:26.373Z,6.17
2019-02-12T20:01:54.679Z,6.20
2019-02-12T20:04:22.924Z,5.78
2019-02-12T20:06:51.030Z,6.45
2019-02-12T20:09:21.017Z,5.45
2019-02-12T20:11:50.147Z,5.47
2019-02-12T20:14:20.041Z,6.05
2019-02-12T20:16:48.196Z,5.55
2019-02-12T20:19:16.459Z,6.10
2019-02-12T20:21:44.667Z,6.50
2019-02-12T20:24:12.707Z,6.97
2019-02-12T20:26:40.964Z,8.80
2019-02-12T20:29:09.173Z,9.50
2019-02-12T20:31:39.262Z,5.87
2019-02-12T20:34:07.171Z,6.00
2019-02-12T20:36:35.313Z,5.80
2019-02-12T20:39:04.518Z,5.83
2019-02-12T20:41:32.676Z,6.00
2019-02-12T20:44:01.902Z,6.40
2019-02-12T20:46:30.144Z,6.17
2019-02-12T20:48:58.252Z,5.87
2019-02-12T20:51:26.490Z,5.00
2019-02-12T20:53:55.972Z,6.42
2019-02-12T20:56:23.915Z,6.00
2019-02-12T20:58:52.163Z,6.47
2019-02-12T21:01:20.884Z,6.60
2019-02-12T21:03:49.049Z,6.13
2019-02-12T21:06:17.273Z,6.87
2019-02-12T21:08:45.457Z,6.00
2019-02-12T21:11:13.759Z,6.00
2019-02-12T21:13:41.791Z,6.42
2019-02-12T21:16:11.006Z,7.05
2019-02-12T21:18:39.188Z,7.08
2019-02-12T21:21:09.428Z,6.80
2019-02-12T21:23:37.560Z,7.08
2019-02-12T21:26:06.819Z,7.28
2019-02-12T21:28:34.898Z,7.67
2019-02-12T21:31:03.105Z,6.70
2019-02-12T21:33:31.439Z,7.70
2019-02-12T21:35:59.370Z,7.58
2019-02-12T21:38:27.593Z,8.00
2019-02-12T21:40:55.835Z,7.25
2019-02-12T21:43:23.901Z,7.53
2019-02-12T21:45:51.944Z,7.30
2019-02-12T21:48:20.193Z,8.03
2019-02-12T21:50:50.141Z,7.55
2019-02-12T21:53:18.203Z,7.60
2019-02-12T21:55:46.519Z,7.05
2019-02-12T21:58:14.662Z,8.15
2019-02-12T22:00:42.964Z,8.05
2019-02-12T22:03:11.121Z,8.15
2019-02-12T22:05:39.240Z,7.70
2019-02-12T22:08:07.241Z,7.25
2019-02-12T22:10:35.562Z,8.35
2019-02-12T22:13:03.690Z,8.40
2019-02-12T22:15:31.918Z,8.48
2019-02-12T22:18:00.267Z,8.70
2019-02-12T22:20:29.491Z,8.40
2019-02-12T22:23:01.782Z,9.10
2019-02-12T22:25:30.280Z,8.97
2019-02-12T22:27:58.628Z,9.20
2019-02-12T22:30:26.941Z,8.40
2019-02-12T22:32:55.171Z,9.25
2019-02-12T22:35:24.232Z,9.18
2019-02-12T22:37:52.814Z,8.60
2019-02-12T22:40:21.004Z,8.35
2019-02-12T22:42:50.192Z,9.18
2019-02-12T22:45:18.778Z,8.90
2019-02-12T22:47:47.138Z,8.43
2019-02-12T22:50:15.368Z,8.40
2019-02-12T22:52:43.672Z,9.53
2019-02-12T22:55:12.479Z,8.80
2019-02-12T22:57:48.588Z,9.13
2019-02-12T23:00:39.085Z,9.50
2019-02-12T23:03:07.737Z,8.50
2019-02-12T23:05:36.144Z,8.83
2019-02-12T23:08:06.108Z,8.90
2019-02-12T23:10:34.599Z,8.65
2019-02-12T23:13:02.868Z,9.33
2019-02-12T23:15:31.058Z,9.50
2019-02-12T23:17:59.153Z,8.63
2019-02-12T23:20:27.476Z,9.00
2019-02-12T23:22:55.689Z,8.83
2019-02-12T23:25:24.792Z,8.63
2019-02-12T23:27:57.505Z,9.80
2019-02-12T23:30:22.940Z,8.70
2019-02-12T23:32:51.256Z,9.40
2019-02-12T23:35:19.307Z,9.38
2019-02-12T23:37:47.533Z,9.25
2019-02-12T23:40:15.636Z,9.35
2019-02-12T23:42:43.949Z,9.28
2019-02-12T23:45:12.599Z,9.53
2019-02-12T23:47:40.416Z,9.90
2019-02-12T23:50:08.852Z,9.40
2019-02-12T23:52:37.133Z,9.85
2019-02-12T23:55:05.335Z,10.10
2019-02-12T23:57:33.496Z,9.50
